Time,TemperatureF,DewpointF,PressureIn,WindDirection,WindDirectionDegrees,WindSpeedMPH,WindSpeedGustMPH,Humidity,HourlyPrecipIn,Conditions,Clouds,dailyrainin,SoftwareType,DateUTC
2013-03-29 00:00:00,40.4,31.4,30.27,West,263,0.0,0.0,70,0.00,,,0.00,Wunderground v.1.13,2013-03-29 04:00:00,
2013-03-29 00:10:00,40.3,30.6,30.27,West,263,0.0,0.0,68,0.00,,,0.00,Wunderground v.1.13,2013-03-29 04:10:00,
2013-03-29 00:20:00,40.3,31.6,30.27,West,263,0.0,0.0,71,0.00,,,0.00,Wunderground v.1.13,2013-03-29 04:20:00,
2013-03-29 00:30:00,40.2,30.8,30.27,West,263,0.0,0.0,69,0.00,,,0.00,Wunderground v.1.13,2013-03-29 04:30:00,
2013-03-29 00:40:00,40.2,30.8,30.27,West,263,0.0,0.0,69,0.00,,,0.00,Wunderground v.1.13,2013-03-29 04:40:00,
2013-03-29 00:50:00,40.1,31.8,30.27,West,263,0.0,0.0,72,0.00,,,0.00,Wunderground v.1.13,2013-03-29 04:50:00,
2013-03-29 01:00:00,40.0,31.7,30.27,West,263,0.0,0.0,72,0.00,,,0.00,Wunderground v.1.13,2013-03-29 05:00:00,
2013-03-29 01:10:00,39.8,31.5,30.27,West,263,0.0,0.0,72,0.00,,,0.00,Wunderground v.1.13,2013-03-29 05:10:00,
2013-03-29 01:20:00,39.7,31.8,30.27,West,263,0.0,0.0,73,0.00,,,0.00,Wunderground v.1.13,2013-03-29 05:20:00,
2013-03-29 01:30:00,39.6,31.7,30.27,West,263,0.0,0.0,73,0.00,,,0.00,Wunderground v.1.13,2013-03-29 05:30:00,
2013-03-29 01:40:00,39.5,31.9,30.27,West,263,0.0,0.0,74,0.00,,,0.00,Wunderground v.1.13,2013-03-29 05:40:00,
2013-03-29 01:50:00,39.4,31.8,30.27,West,263,0.0,0.0,74,0.00,,,0.00,Wunderground v.1.13,2013-03-29 05:50:00,
2013-03-29 02:00:00,39.3,32.0,30.27,West,263,0.0,0.0,75,0.00,,,0.00,Wunderground v.1.13,2013-03-29 06:00:00,
2013-03-29 02:10:00,39.2,31.9,30.27,West,263,0.0,0.0,75,0.00,,,0.00,Wunderground v.1.13,2013-03-29 06:10:00,
2013-03-29 02:20:00,39.2,31.9,30.27,West,263,0.0,0.0,75,0.00,,,0.00,Wunderground v.1.13,2013-03-29 06:20:00,
2013-03-29 02:30:00,39.2,32.3,30.27,West,263,0.0,0.0,76,0.00,,,0.00,Wunderground v.1.13,2013-03-29 06:30:00,
2013-03-29 02:40:00,39.2,32.6,30.27,West,263,0.0,0.0,77,0.00,,,0.00,Wunderground v.1.13,2013-03-29 06:40:00,
2013-03-29 02:50:00,39.1,32.5,30.27,West,263,0.0,0.0,77,0.00,,,0.00,Wunderground v.1.13,2013-03-29 06:50:00,
2013-03-29 03:00:00,39.3,32.0,30.27,West,263,0.0,1.0,75,0.00,,,0.00,Wunderground v.1.13,2013-03-29 07:00:00,
2013-03-29 03:10:00,39.1,32.5,30.27,West,263,0.0,0.0,77,0.00,,,0.00,Wunderground v.1.13,2013-03-29 07:10:00,
2013-03-29 03:20:00,39.1,32.2,30.26,West,263,0.0,0.0,76,0.00,,,0.00,Wunderground v.1.13,2013-03-29 07:20:00,
2013-03-29 03:30:00,39.1,32.5,30.26,West,263,0.0,0.0,77,0.00,,,0.00,Wunderground v.1.13,2013-03-29 07:30:00,
2013-03-29 03:40:00,38.7,32.4,30.26,West,263,0.0,0.0,78,0.00,,,0.00,Wunderground v.1.13,2013-03-29 07:40:00,
2013-03-29 03:50:00,38.4,32.1,30.26,West,263,0.0,0.0,78,0.00,,,0.00,Wunderground v.1.13,2013-03-29 07:50:00,
2013-03-29 04:00:00,38.4,32.5,30.26,West,263,0.0,0.0,79,0.00,,,0.00,Wunderground v.1.13,2013-03-29 08:00:00,
2013-03-29 04:10:00,38.4,32.1,30.25,West,263,0.0,0.0,78,0.00,,,0.00,Wunderground v.1.13,2013-03-29 08:10:00,
2013-03-29 04:20:00,38.5,32.2,30.25,West,263,0.0,0.0,78,0.00,,,0.00,Wunderground v.1.13,2013-03-29 08:20:00,
2013-03-29 04:30:00,38.3,32.4,30.25,West,263,0.0,0.0,79,0.00,,,0.00,Wunderground v.1.13,2013-03-29 08:30:00,
2013-03-29 04:40:00,38.2,32.6,30.25,West,263,0.0,0.0,80,0.00,,,0.00,Wunderground v.1.13,2013-03-29 08:40:00,
2013-03-29 04:50:00,38.0,32.4,30.25,West,263,0.0,0.0,80,0.00,,,0.00,Wunderground v.1.13,2013-03-29 08:50:00,
2013-03-29 05:00:00,38.0,32.1,30.25,West,263,0.0,0.0,79,0.00,,,0.00,Wunderground v.1.13,2013-03-29 09:00:00,
2013-03-29 05:10:00,38.0,32.4,30.25,West,263,0.0,0.0,80,0.00,,,0.00,Wunderground v.1.13,2013-03-29 09:10:00,
2013-03-29 05:20:00,37.9,31.7,30.26,West,263,0.0,0.0,78,0.00,,,0.00,Wunderground v.1.13,2013-03-29 09:20:00,
2013-03-29 05:30:00,37.8,32.2,30.26,West,263,0.0,0.0,80,0.00,,,0.00,Wunderground v.1.13,2013-03-29 09:30:00,
2013-03-29 05:40:00,37.8,31.6,30.25,West,263,0.0,0.0,78,0.00,,,0.00,Wunderground v.1.13,2013-03-29 09:40:00,
2013-03-29 05:50:00,38.0,32.1,30.25,West,263,0.0,0.0,79,0.00,,,0.00,Wunderground v.1.13,2013-03-29 09:50:00,
2013-03-29 06:00:00,37.8,31.6,30.25,West,263,0.0,0.0,78,0.00,,,0.00,Wunderground v.1.13,2013-03-29 10:00:00,
2013-03-29 06:10:00,37.7,31.8,30.26,West,263,0.0,0.0,79,0.00,,,0.00,Wunderground v.1.13,2013-03-29 10:10:00,
2013-03-29 06:20:00,37.6,32.3,30.26,West,263,0.0,0.0,81,0.00,,,0.00,Wunderground v.1.13,2013-03-29 10:20:00,
2013-03-29 06:30:00,37.6,32.0,30.27,West,263,0.0,0.0,80,0.00,,,0.00,Wunderground v.1.13,2013-03-29 10:30:00,
2013-03-29 06:40:00,37.7,31.5,30.27,West,263,0.0,0.0,78,0.00,,,0.00,Wunderground v.1.13,2013-03-29 10:40:00,
2013-03-29 06:49:00,37.8,32.2,30.27,West,263,0.0,0.0,80,0.00,,,0.00,Wunderground v.1.13,2013-03-29 10:49:00,
2013-03-29 07:00:00,37.5,31.9,30.27,West,263,0.0,0.0,80,0.00,,,0.00,Wunderground v.1.13,2013-03-29 11:00:00,
2013-03-29 07:10:00,37.4,31.5,30.28,West,263,0.0,0.0,79,0.00,,,0.00,Wunderground v.1.13,2013-03-29 11:10:00,
2013-03-29 07:20:00,37.3,31.4,30.28,West,263,0.0,0.0,79,0.00,,,0.00,Wunderground v.1.13,2013-03-29 11:20:00,
2013-03-29 07:30:00,37.2,31.6,30.28,West,263,0.0,0.0,80,0.00,,,0.00,Wunderground v.1.13,2013-03-29 11:30:00,
2013-03-29 07:40:00,37.0,31.1,30.28,West,263,0.0,0.0,79,0.00,,,0.00,Wunderground v.1.13,2013-03-29 11:40:00,
2013-03-29 07:50:00,36.9,31.6,30.28,West,263,0.0,0.0,81,0.00,,,0.00,Wunderground v.1.13,2013-03-29 11:50:00,
2013-03-29 08:00:00,36.8,31.2,30.29,West,263,0.0,0.0,80,0.00,,,0.00,Wunderground v.1.13,2013-03-29 12:00:00,
2013-03-29 08:10:00,36.9,31.9,30.29,West,263,0.0,0.0,82,0.00,,,0.00,Wunderground v.1.13,2013-03-29 12:10:00,
2013-03-29 08:20:00,37.7,31.1,30.29,West,263,1.0,1.0,77,0.00,,,0.00,Wunderground v.1.13,2013-03-29 12:20:00,
2013-03-29 08:30:00,38.3,30.7,30.29,West,263,0.0,1.0,74,0.00,,,0.00,Wunderground v.1.13,2013-03-29 12:30:00,
2013-03-29 08:40:00,38.9,31.0,30.29,West,263,1.0,1.0,73,0.00,,,0.00,Wunderground v.1.13,2013-03-29 12:40:00,
2013-03-29 08:49:00,39.3,31.0,30.29,West,263,1.0,1.0,72,0.00,,,0.00,Wunderground v.1.13,2013-03-29 12:49:00,
2013-03-29 09:00:00,40.1,31.4,30.29,West,263,1.0,1.0,71,0.00,,,0.00,Wunderground v.1.13,2013-03-29 13:00:00,
2013-03-29 09:10:00,40.7,31.3,30.29,West,263,1.0,1.0,69,0.00,,,0.00,Wunderground v.1.13,2013-03-29 13:10:00,
2013-03-29 09:20:00,41.3,30.8,30.29,West,264,1.0,1.0,66,0.00,,,0.00,Wunderground v.1.13,2013-03-29 13:20:00,
2013-03-29 09:30:00,42.1,30.0,30.29,WSW,244,2.0,2.0,62,0.00,,,0.00,Wunderground v.1.13,2013-03-29 13:30:00,
2013-03-29 09:40:00,42.9,30.0,30.29,WSW,253,1.0,2.0,60,0.00,,,0.00,Wunderground v.1.13,2013-03-29 13:40:00,
2013-03-29 09:50:00,43.6,29.8,30.28,SE,145,1.0,1.0,58,0.00,,,0.00,Wunderground v.1.13,2013-03-29 13:50:00,
2013-03-29 10:00:00,44.6,30.3,30.28,SSW,202,1.0,1.0,57,0.00,,,0.00,Wunderground v.1.13,2013-03-29 14:00:00,
2013-03-29 10:10:00,45.1,29.0,30.28,South,190,1.0,3.0,53,0.00,,,0.00,Wunderground v.1.13,2013-03-29 14:10:00,
2013-03-29 10:20:00,45.6,29.9,30.28,SSE,155,2.0,2.0,54,0.00,,,0.00,Wunderground v.1.13,2013-03-29 14:20:00,
2013-03-29 10:30:00,46.3,30.5,30.28,SSW,209,2.0,2.0,54,0.00,,,0.00,Wunderground v.1.13,2013-03-29 14:30:00,
2013-03-29 10:40:00,47.0,30.3,30.28,South,171,2.0,2.0,52,0.00,,,0.00,Wunderground v.1.13,2013-03-29 14:40:00,
2013-03-29 10:50:00,47.2,30.0,30.28,South,188,2.0,2.0,51,0.00,,,0.00,Wunderground v.1.13,2013-03-29 14:50:00,
2013-03-29 11:00:00,46.9,30.2,30.27,SSW,207,2.0,2.0,52,0.00,,,0.00,Wunderground v.1.13,2013-03-29 15:00:00,
2013-03-29 11:10:00,48.1,30.3,30.27,SE,128,2.0,5.0,50,0.00,,,0.00,Wunderground v.1.13,2013-03-29 15:10:00,
2013-03-29 11:20:00,48.3,29.5,30.27,NW,311,3.0,3.0,48,0.00,,,0.00,Wunderground v.1.13,2013-03-29 15:20:00,
2013-03-29 11:30:00,48.1,28.3,30.27,SW,223,3.0,3.0,46,0.00,,,0.00,Wunderground v.1.13,2013-03-29 15:30:00,
2013-03-29 11:40:00,49.1,29.2,30.27,SE,126,2.0,2.0,46,0.00,,,0.00,Wunderground v.1.13,2013-03-29 15:40:00,
2013-03-29 11:50:00,49.1,29.2,30.27,SSE,167,2.0,2.0,46,0.00,,,0.00,Wunderground v.1.13,2013-03-29 15:50:00,
2013-03-29 12:00:00,49.2,27.6,30.27,West,270,3.0,4.0,43,0.00,,,0.00,Wunderground v.1.13,2013-03-29 16:00:00,
2013-03-29 12:10:00,48.8,28.9,30.27,SW,225,3.0,3.0,46,0.00,,,0.00,Wunderground v.1.13,2013-03-29 16:10:00,
2013-03-29 12:20:00,49.1,29.2,30.26,SSE,162,2.0,3.0,46,0.00,,,0.00,Wunderground v.1.13,2013-03-29 16:20:00,
2013-03-29 12:30:00,50.1,30.1,30.26,WSW,246,2.0,2.0,46,0.00,,,0.00,Wunderground v.1.13,2013-03-29 16:30:00,
2013-03-29 12:40:00,51.4,27.2,30.25,SSW,193,2.0,3.0,39,0.00,,,0.00,Wunderground v.1.13,2013-03-29 16:40:00,
2013-03-29 12:50:00,51.6,26.1,30.25,South,189,3.0,3.0,37,0.00,,,0.00,Wunderground v.1.13,2013-03-29 16:50:00,
2013-03-29 13:00:00,52.3,27.4,30.24,SSE,154,3.0,3.0,38,0.00,,,0.00,Wunderground v.1.13,2013-03-29 17:00:00,
2013-03-29 13:10:00,52.8,25.9,30.23,SSE,150,3.0,3.0,35,0.00,,,0.00,Wunderground v.1.13,2013-03-29 17:10:00,
2013-03-29 13:20:00,53.2,26.9,30.23,SW,214,3.0,4.0,36,0.00,,,0.00,Wunderground v.1.13,2013-03-29 17:20:00,
2013-03-29 13:30:00,51.7,25.6,30.23,West,269,3.0,3.0,36,0.00,,,0.00,Wunderground v.1.13,2013-03-29 17:30:00,
2013-03-29 13:40:00,50.4,25.7,30.23,West,271,4.0,4.0,38,0.00,,,0.00,Wunderground v.1.13,2013-03-29 17:40:00,
2013-03-29 13:50:00,52.0,26.5,30.22,WSW,257,2.0,2.0,37,0.00,,,0.00,Wunderground v.1.13,2013-03-29 17:50:00,
2013-03-29 14:00:00,52.9,26.0,30.21,WSW,244,3.0,4.0,35,0.00,,,0.00,Wunderground v.1.13,2013-03-29 18:00:00,
2013-03-29 14:09:00,53.5,26.5,30.21,SSW,194,3.0,5.0,35,0.00,,,0.00,Wunderground v.1.13,2013-03-29 18:09:00,
2013-03-29 14:20:00,54.4,26.6,30.20,SSW,204,3.0,3.0,34,0.00,,,0.00,Wunderground v.1.13,2013-03-29 18:20:00,
2013-03-29 14:30:00,54.1,26.3,30.20,West,274,3.0,3.0,34,0.00,,,0.00,Wunderground v.1.13,2013-03-29 18:30:00,
2013-03-29 14:40:00,54.3,25.8,30.19,SSE,158,3.0,5.0,33,0.00,,,0.00,Wunderground v.1.13,2013-03-29 18:40:00,
2013-03-29 14:50:00,54.6,26.8,30.19,WSW,252,3.0,7.0,34,0.00,,,0.00,Wunderground v.1.13,2013-03-29 18:50:00,
2013-03-29 15:00:00,54.4,26.6,30.18,WSW,255,5.0,5.0,34,0.00,,,0.00,Wunderground v.1.13,2013-03-29 19:00:00,
2013-03-29 15:10:00,55.1,26.5,30.18,SE,144,3.0,4.0,33,0.00,,,0.00,Wunderground v.1.13,2013-03-29 19:10:00,
2013-03-29 15:20:00,54.4,25.9,30.18,SSW,196,3.0,3.0,33,0.00,,,0.00,Wunderground v.1.13,2013-03-29 19:20:00,
2013-03-29 15:30:00,55.6,27.6,30.17,West,262,3.0,7.0,34,0.00,,,0.00,Wunderground v.1.13,2013-03-29 19:30:00,
2013-03-29 15:40:00,54.1,26.3,30.17,WSW,251,5.0,5.0,34,0.00,,,0.00,Wunderground v.1.13,2013-03-29 19:40:00,
2013-03-29 15:50:00,55.2,25.8,30.16,West,263,5.0,5.0,32,0.00,,,0.00,Wunderground v.1.13,2013-03-29 19:50:00,
2013-03-29 16:00:00,54.4,27.3,30.16,SW,217,2.0,3.0,35,0.00,,,0.00,Wunderground v.1.13,2013-03-29 20:00:00,
2013-03-29 16:10:00,54.7,27.6,30.16,SSW,195,2.0,3.0,35,0.00,,,0.00,Wunderground v.1.13,2013-03-29 20:10:00,
2013-03-29 16:19:00,54.8,26.9,30.16,West,270,3.0,4.0,34,0.00,,,0.00,Wunderground v.1.13,2013-03-29 20:19:00,
2013-03-29 16:30:00,54.5,26.0,30.16,West,268,3.0,4.0,33,0.00,,,0.00,Wunderground v.1.13,2013-03-29 20:30:00,
2013-03-29 16:40:00,54.3,26.5,30.16,West,260,4.0,4.0,34,0.00,,,0.00,Wunderground v.1.13,2013-03-29 20:40:00,
2013-03-29 16:50:00,54.5,26.0,30.15,WSW,254,2.0,4.0,33,0.00,,,0.00,Wunderground v.1.13,2013-03-29 20:50:00,
2013-03-29 17:00:00,54.4,25.9,30.15,SW,234,3.0,3.0,33,0.00,,,0.00,Wunderground v.1.13,2013-03-29 21:00:00,
2013-03-29 17:10:00,54.3,26.5,30.15,WSW,258,2.0,2.0,34,0.00,,,0.00,Wunderground v.1.13,2013-03-29 21:10:00,
2013-03-29 17:20:00,54.3,26.5,30.15,SSW,200,3.0,3.0,34,0.00,,,0.00,Wunderground v.1.13,2013-03-29 21:20:00,
2013-03-29 17:30:00,53.9,26.1,30.15,WSW,248,2.0,2.0,34,0.00,,,0.00,Wunderground v.1.13,2013-03-29 21:30:00,
2013-03-29 17:40:00,54.4,27.3,30.15,WNW,284,3.0,3.0,35,0.00,,,0.00,Wunderground v.1.13,2013-03-29 21:40:00,
2013-03-29 17:50:00,53.7,26.7,30.16,West,276,3.0,3.0,35,0.00,,,0.00,Wunderground v.1.13,2013-03-29 21:50:00,
2013-03-29 18:00:00,53.8,27.4,30.15,WSW,244,2.0,2.0,36,0.00,,,0.00,Wunderground v.1.13,2013-03-29 22:00:00,
2013-03-29 18:09:00,53.6,27.3,30.16,West,270,3.0,3.0,36,0.00,,,0.00,Wunderground v.1.13,2013-03-29 22:09:00,
2013-03-29 18:20:00,53.2,26.9,30.16,WSW,254,3.0,3.0,36,0.00,,,0.00,Wunderground v.1.13,2013-03-29 22:20:00,
2013-03-29 18:30:00,53.2,27.6,30.16,WSW,251,4.0,6.0,37,0.00,,,0.00,Wunderground v.1.13,2013-03-29 22:30:00,
2013-03-29 18:40:00,52.8,27.2,30.16,West,274,4.0,4.0,37,0.00,,,0.00,Wunderground v.1.13,2013-03-29 22:40:00,
2013-03-29 18:50:00,52.5,27.6,30.16,West,260,2.0,4.0,38,0.00,,,0.00,Wunderground v.1.13,2013-03-29 22:50:00,
2013-03-29 19:00:00,52.2,27.3,30.16,WSW,246,4.0,4.0,38,0.00,,,0.00,Wunderground v.1.13,2013-03-29 23:00:00,
2013-03-29 19:10:00,52.0,28.4,30.16,West,266,3.0,5.0,40,0.00,,,0.00,Wunderground v.1.13,2013-03-29 23:10:00,
2013-03-29 19:19:00,51.8,27.6,30.16,West,270,3.0,3.0,39,0.00,,,0.00,Wunderground v.1.13,2013-03-29 23:19:00,
2013-03-29 19:30:00,51.5,27.3,30.16,SSW,209,2.0,2.0,39,0.00,,,0.00,Wunderground v.1.13,2013-03-29 23:30:00,
2013-03-29 19:40:00,51.5,27.3,30.17,SW,229,3.0,3.0,39,0.00,,,0.00,Wunderground v.1.13,2013-03-29 23:40:00,
2013-03-29 19:50:00,51.3,27.2,30.17,WSW,253,3.0,3.0,39,0.00,,,0.00,Wunderground v.1.13,2013-03-29 23:50:00,
2013-03-29 20:00:00,51.0,28.7,30.17,WNW,302,2.0,2.0,42,0.00,,,0.00,Wunderground v.1.13,2013-03-30 00:00:00,
2013-03-29 20:10:00,50.8,28.5,30.16,West,265,2.0,2.0,42,0.00,,,0.00,Wunderground v.1.13,2013-03-30 00:10:00,
2013-03-29 20:19:00,50.6,27.7,30.16,West,270,2.0,2.0,41,0.00,,,0.00,Wunderground v.1.13,2013-03-30 00:19:00,
2013-03-29 20:30:00,50.5,27.7,30.17,West,272,2.0,2.0,41,0.00,,,0.00,Wunderground v.1.13,2013-03-30 00:30:00,
2013-03-29 20:40:00,50.4,28.1,30.17,West,272,1.0,1.0,42,0.00,,,0.00,Wunderground v.1.13,2013-03-30 00:40:00,
2013-03-29 20:50:00,50.0,27.8,30.17,West,259,1.0,1.0,42,0.00,,,0.00,Wunderground v.1.13,2013-03-30 00:50:00,
2013-03-29 21:00:00,49.9,27.7,30.18,West,259,0.0,0.0,42,0.00,,,0.00,Wunderground v.1.13,2013-03-30 01:00:00,
2013-03-29 21:10:00,49.2,28.2,30.17,West,259,0.0,0.0,44,0.00,,,0.00,Wunderground v.1.13,2013-03-30 01:10:00,
2013-03-29 21:20:00,48.6,28.7,30.17,West,259,0.0,1.0,46,0.00,,,0.00,Wunderground v.1.13,2013-03-30 01:20:00,
2013-03-29 21:30:00,48.0,28.7,30.18,West,259,0.0,0.0,47,0.00,,,0.00,Wunderground v.1.13,2013-03-30 01:30:00,
2013-03-29 21:40:00,47.5,28.8,30.18,West,259,0.0,0.0,48,0.00,,,0.00,Wunderground v.1.13,2013-03-30 01:40:00,
2013-03-29 21:50:00,47.1,28.9,30.18,West,259,0.0,0.0,49,0.00,,,0.00,Wunderground v.1.13,2013-03-30 01:50:00,
2013-03-29 22:00:00,46.7,29.0,30.18,West,259,0.0,0.0,50,0.00,,,0.00,Wunderground v.1.13,2013-03-30 02:00:00,
2013-03-29 22:10:00,46.1,29.0,30.19,West,259,0.0,0.0,51,0.00,,,0.00,Wunderground v.1.13,2013-03-30 02:10:00,
2013-03-29 22:19:00,45.7,29.1,30.19,West,259,0.0,0.0,52,0.00,,,0.00,Wunderground v.1.13,2013-03-30 02:19:00,
2013-03-29 22:30:00,45.3,28.7,30.19,West,259,0.0,0.0,52,0.00,,,0.00,Wunderground v.1.13,2013-03-30 02:30:00,
2013-03-29 22:40:00,45.0,29.3,30.19,West,259,0.0,0.0,54,0.00,,,0.00,Wunderground v.1.13,2013-03-30 02:40:00,
2013-03-29 22:50:00,44.6,30.3,30.19,West,259,0.0,0.0,57,0.00,,,0.00,Wunderground v.1.13,2013-03-30 02:50:00,
2013-03-29 23:00:00,44.2,30.8,30.19,West,259,0.0,0.0,59,0.00,,,0.00,Wunderground v.1.13,2013-03-30 03:00:00,
2013-03-29 23:09:00,44.2,31.6,30.19,West,259,0.0,0.0,61,0.00,,,0.00,Wunderground v.1.13,2013-03-30 03:09:00,
2013-03-29 23:20:00,44.0,30.6,30.19,West,259,0.0,0.0,59,0.00,,,0.00,Wunderground v.1.13,2013-03-30 03:20:00,
2013-03-29 23:29:00,43.8,30.4,30.19,West,259,0.0,0.0,59,0.00,,,0.00,Wunderground v.1.13,2013-03-30 03:29:00,
2013-03-29 23:30:00,43.9,30.9,30.19,North,-999,0.0,0.0,60,0.00,,,-99.99,WeatherLink 6.0.2,2013-03-30 03:30:00,
2013-03-29 23:40:00,43.6,30.6,30.19,West,259,0.0,0.0,60,0.00,,,0.00,Wunderground v.1.13,2013-03-30 03:40:00,
2013-03-29 23:50:00,43.2,31.1,30.19,West,259,0.0,0.0,62,0.00,,,0.00,Wunderground v.1.13,2013-03-30 03:50:00,